Lincoln, KS

7:07 PM CDT on June 26, 2017 (GMT -0500)
Rural Lincoln County | | Change Station
Active Advisory: Severe Thunderstorm Watch

Elev 1631 ft 38.94 °N, 98.27 °W | Updated 12 seconds ago

Partly Cloudy
Partly Cloudy
81.7 °F
Feels Like 81 °F
N
15.9
Wind Variable Wind from NE
Gusts 17.4 mph

Today
High -- | Low -- °F
--% Chance of Precip.
Yesterday
High -- | Low -- °F
Precip. -- in
Pressure 30.00 in
Visibility 10.0 miles
Clouds Scattered Clouds 6500 ft
Heat Index 81 °F
Dew Point 51 °F
Humidity 35%
Rainfall 0.00 in
Snow Depth Not available.
6:08 AM 9:02 PM
Waxing Crescent, 12% visible
METAR KSLN 262353Z 05017G25KT 10SM VCTS SCT065 24/16 A3002 RMK AO2 PK WND 01033/2323 LTG DSNT E AND SE TSB22E52 SLP157 T02440161 10317 20233 55011 $
Pressure 30.00 in
Visibility 10.0 miles
Clouds Scattered Clouds 6500 ft
Heat Index 81 °F
Dew Point 51 °F
Humidity 35%
Rainfall 0.00 in
Snow Depth Not available.
6:08 AM 9:02 PM
Waxing Crescent, 12% visible
METAR KSLN 262353Z 05017G25KT 10SM VCTS SCT065 24/16 A3002 RMK AO2 PK WND 01033/2323 LTG DSNT E AND SE TSB22E52 SLP157 T02440161 10317 20233 55011 $

Get Your Daily Forecast Email!

Thanks for signing up!

Be on the lookout for a verification email in your inbox.

You'll start receiving severe weather alerts in your inbox..

×

10-Day Weather Forecast

Almanac

Astronomy

Jun. 26, 2017 Rise Set
Actual Time
Civil Twilight
Nautical Twilight
Astronomical Twilight
Moon
Length of Visible Light
Length of Day
Tomorrow will be .
, % of the Moon is Illuminated

Today's Extremes

State Highs State Lows

Community

WunderPhotos

Category 6

Welcome to Category 6. This is the collective home for Weather Underground's featured writeups by Dr. Jeff Masters (right), Bob Henson (left), Chris Burt, and other regular contributors.

Nearby

Air Quality

  Air Quality AQ Index Pollutant
Not available.

Snow Depth

Station Depth Elevation

Earthquake Activity

City Distance Mag. Time & Date
Minimum magnitude displayed is 2.5.

Coastal Water Temperatures

Place Temperature

Stations

Nearby Weather Stations

Station Location Temp. Windchill Dew Point Humidity Wind Precip. Elev Updated Type
                   

Watches & Warnings

Severe Thunderstorm Watch
Issued: 7:03 PM CDT Jun. 26, 2017 – National Weather Service

Severe Thunderstorm Watch 371 remains in effect until 1000 PM CDT

KS
. Kansas counties included are

Barton Cheyenne Decatur
Ellis Ellsworth Gove
Graham Greeley Lane
Lincoln Logan Ness
Norton Rawlins Rice
rush Russell Scott
Sheridan Sherman Thomas
Trego Wallace Wichita